• Join FlightAware (Why Join?)
  • Login
  • US Flag 
06:38PM EST


 

Airport Tracker/Info


-or-


 

Live Flight TrackerFlight Track Log ✈ N588AC ✈ 17-Oct-2013 ✈ KBKL - KBCB

Flight Track Log - Related Links

Times and Time Zones

All times are in EDT time to prevent confusion due to time zone crossing. See the N588AC flight status page for this flight to view local times or setup timezone preferences in your user account.

Time Position Orientation Groundspeed Altitude Reporting Facility
EDT Latitude Longitude Course Direction KTS MPH feet Rate Location/Type
11:50AM 41.5489 -81.7333 345° North 223 257 2,100  Level Cleveland Center
11:51AM 41.5703 -81.7408 345° North 253 291 2,100  Level Cleveland Center
11:51AM 41.6117 -81.7603 341° North 271 312 2,100 60 Level Cleveland Center
11:52AM 41.6375 -81.7922 317° Northwest 260 299 2,200 600 Climbing Cleveland Center
11:52AM 41.6408 -81.8519 274° West 232 267 2,900 1,140 Climbing Cleveland Center
11:53AM 41.6386 -81.8808 264° West 244 281 3,400 1,200 Climbing Cleveland Center
11:54AM 41.6144 -81.9619 248° West 249 287 4,600 1,800 Climbing Cleveland Center
11:55AM 41.5597 -82.0172 217° Southwest 261 300 7,100 2,700 Climbing Cleveland Center
11:56AM 41.4867 -82.0222 183° South 264 304 10,300 3,240 Climbing Cleveland Center
11:57AM 41.4236 -82.0247 182° South 230 265 13,800 2,880 Climbing Cleveland Center
11:58AM 41.3608 -82.0244 180° South 214 246 16,300 1,980 Climbing Cleveland Center
11:59AM 41.2944 -82.0250 180° South 235 270 18,000 1,260 Climbing Cleveland Center
12:00PM 41.2178 -82.0275 181° South 271 312 19,000 960 Climbing Cleveland Center
12:01PM 41.1353 -82.0289 181° South 293 337 20,000 1,020 Climbing Cleveland Center
12:02PM 41.0386 -82.0306 181° South 307 353 21,200 1,020 Climbing Cleveland Center
12:03PM 40.9508 -82.0331 181° South 311 358 22,200 960 Climbing Cleveland Center
12:04PM 40.8694 -82.0644 196° South 305 351 23,300 1,440 Climbing Cleveland Center
12:05PM 40.7872 -82.1250 209° Southwest 290 334 25,200 1,740 Climbing Cleveland Center
12:06PM 40.7253 -82.1714 210° Southwest 258 297 27,000 840 Climbing Cleveland Center
12:07PM 40.6586 -82.2192 209° Southwest 267 307 27,000  Level Cleveland Center
12:08PM 40.5878 -82.2731 210° Southwest 287 330 27,000  Level Indianapolis Center
12:09PM 40.5006 -82.2528 170° South 336 387 27,000  Level Indianapolis Center
12:10PM 40.4094 -82.2000 156° South 351 404 27,000  Level Indianapolis Center
12:11PM 40.3178 -82.1478 157° South 354 407 27,000  Level Indianapolis Center
12:12PM 40.2175 -82.0900 156° South 359 413 27,000  Level Indianapolis Center
12:13PM 40.1261 -82.0350 155° Southeast 361 415 27,000  Level Indianapolis Center
12:14PM 40.0344 -81.9814 156° South 361 415 27,000  Level Indianapolis Center
12:15PM 39.9419 -81.9289 156° South 361 415 27,000  Level Indianapolis Center
12:16PM 39.8508 -81.8761 156° South 359 413 27,000  Level Indianapolis Center
12:18PM 39.7597 -81.8236 156° South 358 412 27,000  Level Indianapolis Center
12:19PM 39.6644 -81.7664 155° Southeast 360 414 27,000  Level Indianapolis Center
12:20PM 39.5722 -81.7161 157° South 359 413 27,000  Level Indianapolis Center
12:21PM 39.4806 -81.6633 156° South 360 414 27,000  Level Indianapolis Center
12:22PM 39.3881 -81.6108 156° South 361 415 27,000  Level Indianapolis Center
12:23PM 39.2778 -81.5478 156° South 359 413 27,000  Level Indianapolis Center
12:24PM 39.1867 -81.4947 156° South 358 412 27,000  Level Indianapolis Center
12:25PM 39.0944 -81.4419 156° South 360 414 27,000  Level Indianapolis Center
12:26PM 39.0022 -81.3903 156° South 359 413 27,000  Level Indianapolis Center
12:27PM 38.9092 -81.3386 157° South 360 414 27,000  Level Indianapolis Center
12:28PM 38.8161 -81.2869 157° South 359 413 27,000  Level Indianapolis Center
12:29PM 38.7228 -81.2336 156° South 361 415 27,000  Level Indianapolis Center
12:30PM 38.6300 -81.1828 157° South 359 413 27,000  Level Indianapolis Center
12:31PM 38.5369 -81.1319 157° South 360 414 27,000 -420 Level Indianapolis Center
12:32PM 38.4428 -81.0794 156° South 364 419 26,200 -1,020 Descending Indianapolis Center
12:33PM 38.3453 -81.0267 157° South 376 433 25,000 -1,620 Descending Indianapolis Center
12:34PM 38.2292 -80.9869 165° South 359 413 22,900 -1,980 Descending Indianapolis Center
12:35PM 38.1358 -80.9583 166° South 347 399 21,000 -1,800 Descending Indianapolis Center
12:36PM 38.0450 -80.9569 179° South 327 376 19,200 -1,980 Descending Indianapolis Center
12:37PM 37.9544 -80.9164 161° South 343 395 17,000 -2,040 Descending Indianapolis Center
12:38PM 37.8697 -80.8694 156° South 336 387 15,100 -1,560 Descending Indianapolis Center
12:39PM 37.7758 -80.8281 161° South 318 366 13,900 -1,140 Descending Indianapolis Center
12:40PM 37.6978 -80.7994 164° South 304 350 12,800 -1,200 Descending Indianapolis Center
12:41PM 37.6256 -80.7403 147° Southeast 323 372 11,500 -1,320 Descending Indianapolis Center
12:42PM 37.5611 -80.6731 140° Southeast 313 360 10,100 -1,560 Descending Indianapolis Center
12:43PM 37.4922 -80.6025 141° Southeast 279 321 8,300 -1,620 Descending Indianapolis Center
12:44PM 37.4642 -80.5869 156° South 288 331 7,700 -900 Descending Washington Center
12:45PM 37.4764 -80.4986 80° East 215 247 7,000 -360 Descending Washington Center
12:46PM 37.5561 -80.4828 North 172 198 7,000 -300 Level Washington Center
12:47PM 37.5844 -80.5581 295° West 173 199 6,500 -540 Descending Washington Center
12:48PM 37.5183 -80.5931 203° Southwest 158 182 6,000 -300 Descending Washington Center
12:49PM 37.4550 -80.6097 192° South 192 221 6,000  Level Washington Center
12:50PM 37.3997 -80.6322 198° South 203 234 6,000  Level Washington Center
12:51PM 37.3594 -80.6506 200° South 203 234 6,000 -60 Level Washington Center
12:52PM 37.3131 -80.6581 187° South 203 234 5,900 -120 Descending Washington Center
12:54PM 37.2076 -80.4078 115° Southeast  Level Estimated